x

Middle Nomad (46004) Wave Buoy

2:00pm - Wed 23rd Jul 2014 All times are PDT. -7 hours from GMT.

  • Sig Wave height 4.3ft
  • Peak Period 6s
  • Wind
    16mph, 18mph gusts
  • Air Temp 57°f
  • Sea Pressure 1022.3mb
  • Middle Nomad
  • Middle Nomad

More Historic Weather Station data

Upgrade to MSW Pro to gain access to the past 30 days of data for over 8000 Wavebouys and Weather Stations around the globe.

Join Pro

Comparision Forecast

View Surf forecast
   
Wed 07/23 2:00pm 4.5ft 6s 16 18 mph 1022.3mb 57f
1:00pm 4.5ft 8s 18 20 mph 1022.2mb 57f
12:00pm 4.5ft 6s 13 18 mph 1022.2mb 57f
11:00am 4.5ft 6s 11 13 mph 1022.5mb 57f
10:00am 4.5ft 7s 13 18 mph 1022.5mb 57f
9:00am 4.5ft 7s 16 20 mph 1022.6mb 57f
8:00am 4.5ft 7s 16 22 mph 1022.5mb 57f
7:00am 4.5ft 7s 16 20 mph 1022.3mb 57f
6:00am 4.5ft 8s 16 18 mph 1021.9mb 57f
5:00am 4.5ft 8s 13 18 mph 1022.2mb 57f
4:00am 4.5ft 8s 13 16 mph 1022.3mb 57f
3:00am 4.5ft 7s 13 16 mph 1022.5mb 58f
2:00am 5ft 8s 11 13 mph 1022.5mb 58f
1:00am 5ft 8s 11 13 mph 1022.4mb 58f
12:00am 5ft 8s 13 16 mph 1022.6mb 58f
Tue 07/22 11:00pm 5ft 8s 13 18 mph 1022.3mb 58f
10:00pm 5.5ft 8s 16 18 mph 1022.1mb 58f
9:00pm 5.5ft 8s 16 18 mph 1021.6mb 58f
8:00pm 5.5ft 8s 16 20 mph 1021.3mb 58f
7:00pm 5.5ft 8s 18 22 mph 1020.8mb 58f
6:00pm 6ft 7s 18 20 mph 1020.8mb 59f
5:00pm 6ft 8s 18 20 mph 1020.6mb 58f
4:00pm 6ft 8s 16 18 mph 1020.2mb 59f
3:00pm 6ft 8s 13 16 mph 1019.9mb 58f
2:00pm 6ft 9s 13 16 mph 1019.3mb 58f
1:00pm 6ft 8s 13 18 mph 1018.5mb 58f
12:00pm 6ft 7s 13 16 mph 1017.6mb 58f
11:00am 6ft 8s 13 16 mph 1016.9mb 58f
10:00am 6.5ft 8s 13 16 mph 1016.2mb 58f
9:00am 6ft 8s 13 18 mph 1015.8mb 58f
8:00am 6ft 8s 16 18 mph 1015.5mb 58f
7:00am 5.5ft 9s 18 20 mph 1014.9mb 57f
6:00am 6ft 9s 11 13 mph 1014.1mb 57f
5:00am 6ft 8s 13 16 mph 1013.8mb 56f
4:00am 6ft 8s 13 16 mph 1013.6mb 57f
3:00am 6.5ft 8s 13 16 mph 1013.5mb 57f
2:00am 7ft 8s 13 16 mph 1013.5mb 57f
1:00am 7ft 8s 13 18 mph 1013.4mb 57f
12:00am 7ft 8s 16 20 mph 1013.1mb 57f
Mon 07/21 11:00pm 8ft 9s 13 16 mph 1012.9mb 57f
10:00pm 7.5ft 8s 13 18 mph 1012.6mb 57f
9:00pm 7.5ft 8s 16 20 mph 1012.2mb 57f
8:00pm 8ft 8s 16 20 mph 1011.9mb 57f
7:00pm 7.5ft 8s 18 20 mph 1011.8mb 58f
6:00pm 7.5ft 8s 18 22 mph 1011.6mb 56f
5:00pm 8ft 9s 18 22 mph 1011.4mb 57f
4:00pm 8ft 7s 18 20 mph 1011.4mb 57f
3:00pm 8.5ft 8s 18 22 mph 1011.4mb 57f
2:00pm 7.5ft 8s 20 25 mph 1010.9mb 57f
1:00pm 8ft 8s 20 25 mph 1010.6mb 56f
12:00pm  -   -  20
mph
- 57f
11:00am 8ft 8s 18 22 mph 1009.9mb 56f
10:00am 8ft 7s 16 20 mph 1009.8mb 56f
9:00am 8ft 8s 20 25 mph 1009.5mb 56f
8:00am  -   -  22
mph
1009.5mb 57f
7:00am 7.5ft 7s 18 20 mph 1009.8mb 55f
6:00am 7.5ft 7s 22 27 mph 1009.9mb 55f
5:00am 7ft 6s 20 25 mph 1010.5mb 57f
4:00am 7ft 7s 20 25 mph 1010.7mb 56f
3:00am 7ft 6s 22 27 mph 1011.1mb 56f
2:00am 7ft 8s 20 29 mph 1011.9mb 55f
1:00am 7ft 12s 20 27 mph 1012.6mb 55f
12:00am 7ft 11s 22 29 mph 1013.1mb 56f
Sun 07/20 11:00pm 7ft 11s 20 25 mph 1013.7mb 56f
10:00pm 6.5ft 10s 20 25 mph 1014.5mb 56f
9:00pm 5.5ft 10s 16 20 mph 1015.1mb 57f
8:00pm 6ft 12s 16 18 mph 1015.9mb 57f
7:00pm 5.5ft 9s 16 18 mph 1016.6mb 57f
6:00pm 5ft 10s 16 18 mph 1017.3mb 57f
5:00pm 5.5ft 10s 13 18 mph 1017.8mb 57f
4:00pm 5.5ft 10s 13 16 mph 1018.3mb 57f
3:00pm 5.5ft 10s 13 16 mph 1018.6mb 56f
2:00pm 5.5ft 8s 13 16 mph 1018.7mb 57f
1:00pm 6ft 10s 11 13 mph 1019mb 57f
12:00pm 6ft 9s 13 16 mph 1019mb 57f
11:00am 6ft 10s 11 13 mph 1019mb 57f
10:00am 6.5ft 10s 9 11 mph 1019mb 56f
9:00am 6.5ft 10s 13 18 mph 1019mb 57f
8:00am 7ft 10s 13 18 mph 1018.8mb 56f
7:00am 6.5ft 10s 16 20 mph 1018.8mb 55f
6:00am 7ft 10s 13 18 mph 1018.9mb 57f
5:00am 7ft 10s 16 22 mph 1019mb 56f
4:00am 7ft 10s 13 18 mph 1019.2mb 56f
3:00am 7ft 11s 18 20 mph 1019.3mb 56f
2:00am 7ft 11s 13 16 mph 1019.5mb 57f
1:00am 7.5ft 10s 16 18 mph 1019.3mb 57f
12:00am 7.5ft 10s 11 13 mph 1019.5mb 57f
Sat 07/19 11:00pm 8ft 11s 11 13 mph 1019.2mb 57f